Gallatin, Tennessee
Current Conditions -  °F | °C
As of 1:53 AM on Friday 31 Oct 2014 (Local Time) from KBNA Reporting Station
Overcast Overcast  
Wind Chill: 50°   Ceiling: 8000
Heat Index: 50°   Visibility: 10mi
Dew Point: 45°   Wind: 3mph
Humidity: 83%   Direction: 120°ESE
Pressure: 30.01"   Gusts: NA
Location:  36.39°N, 86.45°W
Report Text: KBNA 310653Z 12003KT 10SM SCT060 BKN080 OVC090 10/07 A3001 RMK AO2 SLP160 T01000072
Loading
Personal Weather Stations






























Interactive Weather Map New forecast layout! Learn more

10-Day Weather Forecast

Advertisements
Track Severe Weather on mobile